Main page
METAR-TAF:

METAR-TAF

Airports :

Debrecen International Airport

Debrecen, Hungary

latitude: 47-29N, longitude: 021-36E, elevation: 108 m

Current weather observation

The report was made 43 minutes ago, at 18:15 UTC
Wind 2 kt from the East
Temperature 5°C
Humidity 100%
Pressure 1009 hPa
Visibility: 3900 m
Scattered clouds at a height of 3800 ft
Broken clouds at a height of 5500 ft
Broken clouds at a height of 10000 ft
mist

METAR: LHDC 091815Z AUTO 08002KT 3900 BR SCT038 BKN055 BKN100 05/05 Q1009 TEMPO 3000 BR

Time: 19:58 (18:58 UTC)

Forecast

The report was made 1 hour and 43 minutes ago, at 17:15 UTC
Forecast valid from 09 at 18 UTC to 10 at 03 UTC
Wind 2 kt from variable directions
Visibility: 6000 m
Temporary
from 09 at 18 UTC to 10 at 03 UTC
Visibility: 3000 m
Broken clouds at a height of 3000 ft
Overcast at a height of 6000 ft
light rain, mist

TAF: LHDC 091715Z 0918/1003 VRB02KT 6000 NSC TEMPO 0918/1003 3000 -RA BR BKN030 OVC060

Weather observations and forecasts of more than 4000 airports (METAR and TAF reports).

The available stations are represented by yellow and red dots on the map.

Hover mouse over dot to see the name of the station.

Then click to see weather observations and forecasts.

To change the map : click on the green buttons with a black cross to zoom in, on the green button with a dash to zoom out, or on the green arrows for adjacent maps.


METAR-TAF: